James Hawkins

Recruteur - Portsmouth
9 Oct 2027
Samedi
Processus

Personnalité

Adaptabilité (8) Ambition (6) Controverse (3) Loyauté (10) Pression (2) Professionnalisme (16) Sportivité (16) Tempérament (5)

Profil

Style d'entraînement Démocratique
Diplôme National A
Détermination 10
Gestion des joueurs 4
Motivation 5
Discipline 8
Satisfaction professionnelle
99%
Fatigue
0%
Rôle Recruteur
Salaire 49.2K p/s
Contrat 14.03.2028

Performance

Comportement Bon
Efficacité de l'entraînement
51%
Développement des joueurs
50%
Prévention des blessures
30%
Mise en place tactique
40%

Événements récents

A évalué un joueur maintenant
A participé à une réunion de recrutement maintenant
A recommandé une cible de transfert maintenant
A évalué un joueur maintenant
A évalué un joueur 7j
A évalué un joueur 7j
A évalué un joueur 7j
A évalué un joueur 7j

Suivi en cours

125
Joueur Club Statut Capacité Confiance Observé Dernière observation Dernier vote
Uche Jaguar Kwara United Actif 81 / 109 40% 3 08.10.2027 -
Facundo Balatti Penarol Actif 96 / 114 40% 2 08.10.2027 -
Gideon Manaseh Ikorodu City Actif 84 / 97 40% 3 07.10.2027 -
Tiago Gordillo San Miguel Actif 83 / 97 40% 1 07.10.2027 -
Ayden Heaven Sheffield Wednesday Actif 138 / 145 40% 1 06.10.2027 -
Felipe Faúndez O'Higgins Actif 102 / 100 40% 3 04.10.2027 -
Frankie Westfield Philadelphia Union Actif 108 / 115 40% 1 04.10.2027 -
Juan Camilo Córdoba Deportivo Pereira Actif 86 / 86 40% 3 02.10.2027 -
Jofrank Istifanus Nasarawa United Actif 89 / 82 40% 1 02.10.2027 -
Esteban de Lima Tacuarembo Actif 83 / 99 40% 1 01.10.2027 -
Trey Nyoni Doncaster Rovers Actif 142 / 137 40% 2 30.09.2027 -
Habeeb Ogunneye Astra Actif 92 / 91 40% 1 30.09.2027 -
Luis Otávio Toronto FC Actif 110 / 111 40% 1 27.09.2027 -
Josh Nichols Tranmere Rovers Actif 107 / 135 40% 1 27.09.2027 -
Mirsad Ali TSC Actif 84 / 94 40% 2 25.09.2027 -
Snyder Brunell Seattle Sounders Actif 98 / 111 40% 2 23.09.2027 -
Yunus Emre Konak Brentford Actif 120 / 133 40% 1 23.09.2027 -
Sheriff Amuda Shooting Stars Actif 99 / 85 40% 1 21.09.2027 -
Azizbek To'lqinbekov Bunyodkor Actif 80 / 110 40% 1 18.09.2027 -
Joe Bauress KV Oostende Actif 94 / 98 40% 1 18.09.2027 -
Aiden Hezarkhani Real Salt Lake Actif 94 / 88 40% 2 16.09.2027 -
Charlie Penman Polissia Actif 75 / 83 40% 1 10.09.2027 -
Ollie Morgan Cultural Leonesa Actif 84 / 99 40% 1 08.09.2027 -
Jon Esenga IF Elfsborg Actif 102 / 101 40% 1 08.09.2027 -
Owen Eames Almería Actif 88 / 92 40% 1 07.09.2027 -
Jaydee Canvot Liverpool Actif 128 / 156 40% 1 07.09.2027 -
Kaick FC Dallas Actif 121 / 102 40% 2 01.09.2027 -
Geanfranco Rodríguez Defensor Sporting Actif 105 / 88 40% 1 01.09.2027 -
Eliás Montiel Atlético Madrid Actif 138 / 133 40% 1 16.08.2027 -
Jacob Wright Norwich City Actif 125 / 131 40% 1 19.07.2027 -
Maeson King Blackpool Négociation 119 / 112 40% 1 19.07.2027 -
Riley Owen Wycombe Wanderers Actif 104 / 117 40% 2 22.06.2027 -
Tommaso Cecotti Carpi Actif 106 / 108 40% 1 22.06.2027 -
Martim Cunha Porto Actif 105 / 108 40% 1 13.06.2027 -
Michael Cheek Bromley Actif 107 / 103 51% 1 07.06.2027 -
Thulani Billiat Utrecht Rapport prêt 136 / 136 61% 1 01.06.2027 -
Patrick Berg Borussia Mönchengladbach Rapport prêt 141 / 141 62% 1 01.06.2027 -
Roberto Fernández Braga Actif 138 / 140 66% 1 01.06.2027 Approuver
Mao Hosoya Manchester City Rapport prêt 134 / 135 67% 1 01.06.2027 -
Amar Memić Juventude Rapport prêt 127 / 128 62% 1 01.06.2027 -
Kirill Glebov CSKA Moscow Actif 127 / 132 40% 3 31.05.2027 -
Stevan Manuel Benfica Actif 106 / 106 40% 1 31.05.2027 -
Alphadjo Cissé Pisa Actif 133 / 120 40% 3 29.05.2027 -
David Obou AFC Wimbledon Actif 99 / 82 40% 1 28.05.2027 -
Daniel Watts Salyut Actif 80 / 86 40% 1 28.05.2027 -
Manu Rodríguez Gijón Actif 107 / 109 40% 3 27.05.2027 -
Ronwen Khune Black Aces Actif 82 / 90 40% 1 27.05.2027 -
Sidiki Chérif Coventry City Actif 118 / 137 40% 3 25.05.2027 -
Oscar Schwartau Norwich City Actif 123 / 115 40% 2 23.05.2027 -
Nestory Irankunda Watford Actif 127 / 117 40% 2 23.05.2027 -
Othmane Maamma Watford Actif 137 / 138 40% 5 22.05.2027 -
Oumar Camara Vitoria Guimaraes Actif 116 / 128 40% 3 21.05.2027 -
Caleb Yirenkyi Coventry City Actif 129 / 142 40% 1 21.05.2027 -
Asanele Bonani Chippa United Actif 94 / 79 40% 4 20.05.2027 -
Gladson Sulemana Liberty Professionals Actif 89 / 103 40% 2 19.05.2027 -
Sindre Walle Egeli Nottingham Forest Actif 135 / 136 40% 2 18.05.2027 -
Christos Mouzakitis Hull City Actif 125 / 133 40% 1 17.05.2027 -
Paulo Iago Sporting CP Actif 92 / 101 40% 1 16.05.2027 -
Mattia Rutigliano Pro Vercelli Actif 96 / 93 40% 1 14.05.2027 -
Sam Curtis Swindon Town Actif 96 / 112 40% 1 13.05.2027 -
Yaw Adjei Hasaacas Actif 88 / 79 40% 1 09.05.2027 -
Nikolaus Wurmbrand Heidenheim Actif 128 / 137 40% 2 06.05.2027 -
Kamarni Ryan Salford City Actif 95 / 106 40% 1 04.05.2027 -
Bazoumana Touré Newcastle United Actif 138 / 136 40% 1 03.05.2027 -
Gorka Gorosabel Real Sociedad Actif 101 / 125 40% 2 28.04.2027 -
Joel McGregor Swindon Town Actif 88 / 95 40% 1 28.04.2027 -
Saïd El Mala Köln Actif 126 / 149 40% 2 23.04.2027 -
Rio Morgan Legion Actif 92 / 79 40% 1 23.04.2027 -
Bradley Zwane SuperSport United Actif 119 / 125 40% 2 22.04.2027 -
Lucas Bergvall Tottenham Actif 144 / 156 40% 1 22.04.2027 -
Luke Baartman Bidvest Wits Actif 88 / 125 40% 2 19.04.2027 -
André Miranda Porto Actif 99 / 106 40% 1 16.04.2027 -
Amine Moussaoui Angers SCO Actif 97 / 116 40% 1 16.04.2027 -
Jay Robinson Southampton Actif 112 / 124 40% 1 12.04.2027 -
Joseph Liteta Parma Actif 91 / 116 40% 1 11.04.2027 -
Monty Batlhabane Polokwane City Actif 81 / 87 40% 1 10.04.2027 -
Tiago Freitas Benfica Actif 107 / 110 40% 1 08.04.2027 -
Thulani Mphela Free State Stars Actif 126 / 137 40% 2 31.12.2026 -
Camilo Durán Bloemfontein Celtic Actif 135 / 111 40% 2 31.12.2026 -
Mfundo Vilakazi Kaizer Chiefs Actif 95 / 100 40% 1 30.12.2026 -
Christian Krasnodar Actif 129 / 116 40% 1 30.12.2026 -
Rumarn Burrell Queens Park Rangers Actif 129 / 136 40% 3 29.12.2026 -
Koki Saito Queens Park Rangers Actif 114 / 133 40% 1 29.12.2026 -
Cian Ashford Cardiff City Actif 112 / 129 40% 1 15.12.2026 -
Ali Ahmed Norwich City Actif 124 / 116 40% 1 15.12.2026 -
Zeidane Inoussa Swansea City Actif 118 / 114 40% 1 13.12.2026 -
Myles Peart-Harris Oxford United Actif 130 / 120 40% 1 11.12.2026 -
Julio Enciso Ipswich Town Actif 138 / 149 40% 1 10.12.2026 -
Kayne Ramsay Charlton Athletic Actif 131 / 113 40% 1 10.12.2026 -
Harry Clarke Preston Actif 141 / 137 40% 2 09.12.2026 -
Jeon Jin-Woo Sheffield Wednesday Actif 143 / 119 40% 2 07.12.2026 -
Neco Williams Nottingham Forest Actif 139 / 140 40% 1 07.12.2026 -
Tyrese Campbell Sheffield United Actif 138 / 116 40% 1 04.12.2026 -
Tim Iroegbunam Hull City Actif 148 / 134 40% 1 02.12.2026 -
Andre Brooks Sheffield United Actif 114 / 122 40% 1 02.12.2026 -
Oliver Skipp Leicester City Actif 142 / 133 40% 2 01.12.2026 -
Isaiah Jones Luton Town Actif 114 / 132 40% 1 30.11.2026 -
Josh Edwards Charlton Athletic Actif 120 / 123 40% 1 29.11.2026 -
Tariq Lamptey Queens Park Rangers Actif 125 / 142 40% 1 29.11.2026 -
Iván Angulo Orlando City Actif 131 / 127 40% 1 26.11.2026 -
Jason Knight Bristol City Actif 142 / 137 40% 1 23.11.2026 -
Tommy Conway Middlesbrough Actif 135 / 114 40% 1 23.11.2026 -
Shea Charles Southampton Actif 137 / 133 40% 1 21.11.2026 -
Chemsdine Talbi Sunderland Actif 134 / 151 40% 1 21.11.2026 -
Mduduzi Shabalala Kaizer Chiefs Actif 112 / 107 40% 1 19.11.2026 -
Finn Azaz Southampton Actif 139 / 118 40% 1 17.11.2026 -
Joaquín Pereyra Minnesota United FC Actif 147 / 148 40% 2 15.11.2026 -
Dávid Strelec Middlesbrough Actif 140 / 147 40% 1 11.11.2026 -
Thulani Phiri Platinum Stars Actif 97 / 101 40% 1 10.11.2026 -
Isaac Price West Bromwich Albion Actif 115 / 134 40% 1 09.11.2026 -
Jack Rudoni Coventry City Actif 138 / 119 40% 1 06.11.2026 -
Aaron Connolly Ruch Actif 129 / 109 40% 1 06.11.2026 -
Gabriel Pirani San Diego Football Club Actif 122 / 113 40% 1 03.11.2026 -
Jeong Sang-Bin St. Louis CITY SC Actif 102 / 133 40% 1 31.10.2026 -
Tom Fellows Southampton Actif 138 / 119 40% 1 30.10.2026 -
Ethan Galbraith Swansea City Actif 139 / 136 40% 1 30.10.2026 -
Liel Abada Charlotte Football Club Actif 126 / 135 40% 2 27.10.2026 -
Talles Magno New York City Actif 139 / 124 40% 1 27.10.2026 -
Ho-yeon Jung Minnesota United FC Actif 111 / 114 40% 1 21.10.2026 -
Martín Ojeda Orlando City Actif 148 / 152 40% 3 15.10.2026 -
Tshepang Moremi Orlando Pirates Actif 107 / 104 40% 1 15.10.2026 -
Conrad Wallem Aalborg Actif 117 / 146 40% 1 12.10.2026 -
Santiago Rodríguez Columbus Crew Actif 145 / 124 40% 1 06.10.2026 -
Marco Pašalić Orlando City Actif 128 / 107 40% 1 06.10.2026 -
Brooke Norton-Cuffy Hull City Actif 142 / 137 40% 1 05.10.2026 -